Terminal Aerodrome Forecast
Issued by NWS

Home | Current Version | Previous Version | Text Only | Print | Product List | Glossary On
Versions: 1 2 3 4 5 6 7 8 9 10 11 12 13 14 15 16 17 18 19 20 21 22 23 24 25 26 27 28 29
000
FTAK31 PAFA 010537
TAFAOR
TAF
PAOR 010537Z 0106/0206 32011G22KT P6SM OVC060
     FM010700 30006KT P6SM FEW040 SCT080 BKN200
     FM011000 VRB03KT P6SM FEW080 SCT200
     FM011400 VRB03KT 5SM BR FEW004 SCT200
     FM011900 VRB03KT P6SM SCT200=

USA.gov is the U.S. government's official web portal to all federal, state and local government web resources and services.